Time;durP1;ratioP1;P1;durP2;ratioP2;P2;SDS_P1;SDS_P2;PMS_P1;PMS_P2;Temp;Humidity;BMP_temperature;BMP_pressure;BME280_temperature;BME280_humidity;BME280_pressure;Samples;Min_cycle;Max_cycle;Signal;HPM_P1;HPM_P2
2022/08/06 00:02:23;;;;;;;0.20;0.00;;;12.80;99.90;;;;;;5088115;28;20052;-80
2022/08/06 00:04:50;;;;;;;0.00;0.00;;;12.80;99.90;;;;;;5070925;28;20131;-79
2022/08/06 00:07:16;;;;;;;0.00;0.00;;;12.70;99.90;;;;;;5086546;28;20452;-79
2022/08/06 00:09:42;;;;;;;0.00;0.00;;;12.60;99.90;;;;;;5086774;28;20051;-80
2022/08/06 00:12:08;;;;;;;0.00;0.00;;;12.70;99.90;;;;;;5086995;28;20135;-80
2022/08/06 00:14:34;;;;;;;0.00;0.00;;;12.60;99.90;;;;;;5071261;28;20057;-79
2022/08/06 00:17:00;;;;;;;0.00;0.00;;;12.60;99.90;;;;;;5037687;28;20055;-79
2022/08/06 00:19:26;;;;;;;0.00;0.00;;;12.60;99.90;;;;;;5087837;28;20045;-80
2022/08/06 00:21:53;;;;;;;0.00;0.00;;;12.60;99.90;;;;;;5087815;28;20405;-80
2022/08/06 00:24:19;;;;;;;0.00;0.00;;;12.50;99.90;;;;;;5087887;28;20512;-79
2022/08/06 00:26:45;;;;;;;0.00;0.00;;;12.50;99.90;;;;;;5070683;28;20044;-79
2022/08/06 00:29:11;;;;;;;0.00;0.00;;;12.50;99.90;;;;;;5087787;28;20095;-79
2022/08/06 00:31:37;;;;;;;0.00;0.00;;;12.50;99.90;;;;;;5087750;28;20041;-80
2022/08/06 00:34:03;;;;;;;0.10;0.05;;;12.50;99.90;;;;;;5087077;28;20041;-79
2022/08/06 00:36:31;;;;;;;0.10;0.10;;;12.40;99.90;;;;;;5087179;28;20095;-79
2022/08/06 00:38:59;;;;;;;0.00;0.00;;;12.50;99.90;;;;;;5070518;28;20044;-79
2022/08/06 00:41:25;;;;;;;0.10;0.00;;;12.40;99.90;;;;;;5087738;28;20052;-79
2022/08/06 00:43:51;;;;;;;0.00;0.00;;;12.40;99.90;;;;;;5088090;28;20059;-79
2022/08/06 00:46:17;;;;;;;0.00;0.00;;;12.40;99.90;;;;;;5070527;28;20056;-79
2022/08/06 00:48:43;;;;;;;0.00;0.00;;;12.40;99.90;;;;;;5070340;28;20107;-79
2022/08/06 00:51:09;;;;;;;0.00;0.00;;;12.40;99.90;;;;;;5087315;28;20061;-79
2022/08/06 00:53:36;;;;;;;0.00;0.00;;;12.40;99.90;;;;;;5086960;28;20041;-79
2022/08/06 00:56:03;;;;;;;0.00;0.00;;;12.40;99.90;;;;;;5087287;28;20103;-79
2022/08/06 00:58:29;;;;;;;0.00;0.00;;;12.30;99.90;;;;;;5086948;28;20048;-79
2022/08/06 01:00:54;;;;;;;0.00;0.00;;;12.30;99.90;;;;;;5037330;28;20056;-79
2022/08/06 01:03:20;;;;;;;0.00;0.00;;;12.20;99.90;;;;;;5086881;28;20053;-79
2022/08/06 01:05:45;;;;;;;0.00;0.00;;;12.20;99.90;;;;;;5086757;28;20048;-79
2022/08/06 01:08:12;;;;;;;0.00;0.00;;;12.20;99.90;;;;;;5069687;28;20508;-79
2022/08/06 01:10:38;;;;;;;0.00;0.00;;;12.20;99.90;;;;;;5036284;28;20497;-79
2022/08/06 01:13:04;;;;;;;0.00;0.00;;;12.20;99.90;;;;;;5070380;28;20056;-79
2022/08/06 01:15:32;;;;;;;0.00;0.00;;;12.20;99.90;;;;;;5086528;28;20037;-79
2022/08/06 01:18:03;;;;;;;0.00;0.00;;;12.10;99.90;;;;;;5086491;28;20150;-79
2022/08/06 01:20:52;;;;;;;0.00;0.00;;;12.10;99.90;;;;;;5086783;28;20049;-79
2022/08/06 01:23:44;;;;;;;0.00;0.00;;;12.00;99.90;;;;;;5069328;28;20056;-79
2022/08/06 01:26:22;;;;;;;0.00;0.00;;;12.00;99.90;;;;;;5086451;28;20048;-79
2022/08/06 01:29:09;;;;;;;0.00;0.00;;;12.00;99.90;;;;;;5069921;28;20136;-79
2022/08/06 01:31:57;;;;;;;0.00;0.00;;;11.90;99.90;;;;;;5070340;28;20107;-79
2022/08/06 01:34:36;;;;;;;0.00;0.00;;;11.90;99.90;;;;;;5086571;28;20080;-79
2022/08/06 01:37:17;;;;;;;0.00;0.00;;;11.80;99.90;;;;;;5086527;28;20049;-79
2022/08/06 01:39:46;;;;;;;0.22;0.22;;;11.80;99.90;;;;;;5069273;28;20551;-79
2022/08/06 01:42:13;;;;;;;0.05;0.00;;;11.80;99.90;;;;;;5069560;28;20088;-79
2022/08/06 01:44:43;;;;;;;0.00;0.00;;;11.80;99.90;;;;;;5086385;28;20049;-79
2022/08/06 01:47:11;;;;;;;0.00;0.00;;;11.80;99.90;;;;;;5069583;28;20401;-79
2022/08/06 01:49:40;;;;;;;0.00;0.00;;;11.80;99.90;;;;;;5069467;28;20587;-79
2022/08/06 01:52:07;;;;;;;0.00;0.00;;;11.80;99.90;;;;;;5086169;28;20114;-79
2022/08/06 01:54:43;;;;;;;0.00;0.00;;;11.80;99.90;;;;;;5070065;28;20135;-79
2022/08/06 01:57:10;;;;;;;0.00;0.00;;;11.80;99.90;;;;;;5053598;28;20045;-79
2022/08/06 01:59:41;;;;;;;0.00;0.00;;;11.80;99.90;;;;;;5069360;28;20515;-79
2022/08/06 02:02:14;;;;;;;0.00;0.00;;;11.70;99.90;;;;;;5069454;28;20091;-79
2022/08/06 02:04:42;;;;;;;0.00;0.00;;;11.70;99.90;;;;;;5069751;28;20045;-79
2022/08/06 02:07:10;;;;;;;0.35;0.03;;;11.70;99.90;;;;;;5069810;28;20525;-79
2022/08/06 02:09:38;;;;;;;0.00;0.00;;;11.60;99.90;;;;;;5086527;28;20500;-80
2022/08/06 02:12:09;;;;;;;0.00;0.00;;;11.60;99.90;;;;;;5069336;28;20178;-80
2022/08/06 02:14:47;;;;;;;0.00;0.00;;;11.60;99.90;;;;;;5086111;28;20068;-79
2022/08/06 02:17:15;;;;;;;0.00;0.00;;;11.60;99.90;;;;;;5069469;28;20049;-79
2022/08/06 02:19:49;;;;;;;0.00;0.00;;;11.70;99.90;;;;;;5069739;28;20044;-79
2022/08/06 02:22:16;;;;;;;0.00;0.00;;;11.60;99.90;;;;;;5069254;28;20041;-79
2022/08/06 02:24:45;;;;;;;0.00;0.00;;;11.60;99.90;;;;;;5086344;28;20063;-79
2022/08/06 02:27:14;;;;;;;0.00;0.00;;;11.60;99.90;;;;;;5085932;28;20052;-79
2022/08/06 02:29:41;;;;;;;0.00;0.00;;;11.70;99.90;;;;;;5068966;28;20501;-79
2022/08/06 02:32:08;;;;;;;0.00;0.00;;;11.60;99.90;;;;;;5086281;28;20041;-79
2022/08/06 02:34:34;;;;;;;1.65;0.20;;;11.60;99.90;;;;;;5085933;28;20052;-79
2022/08/06 02:37:12;;;;;;;0.00;0.00;;;11.50;99.90;;;;;;5089149;28;20135;-79
2022/08/06 02:39:44;;;;;;;0.00;0.00;;;11.40;99.90;;;;;;5090075;28;20056;-79
2022/08/06 02:42:32;;;;;;;0.00;0.00;;;11.40;99.90;;;;;;5072931;28;20103;-79
2022/08/06 02:45:07;;;;;;;0.00;0.00;;;11.30;99.90;;;;;;5090186;28;20132;-79
2022/08/06 02:47:38;;;;;;;0.00;0.00;;;11.40;99.90;;;;;;5089573;28;20049;-79
2022/08/06 02:50:07;;;;;;;0.00;0.00;;;11.30;99.90;;;;;;5089753;28;20127;-79
2022/08/06 02:52:48;;;;;;;0.00;0.00;;;11.30;99.90;;;;;;5072615;28;20092;-79
2022/08/06 02:55:19;;;;;;;0.00;0.00;;;11.30;99.90;;;;;;5072996;28;20061;-79
2022/08/06 02:57:55;;;;;;;0.00;0.00;;;11.30;99.90;;;;;;5090184;28;20435;-79
2022/08/06 03:00:22;;;;;;;0.00;0.00;;;11.30;99.90;;;;;;5089682;28;20389;-79
2022/08/06 03:02:54;;;;;;;0.00;0.00;;;11.30;99.90;;;;;;5089724;28;20128;-79
2022/08/06 03:05:21;;;;;;;0.00;0.00;;;11.30;99.90;;;;;;5072888;28;20098;-79
2022/08/06 03:07:51;;;;;;;0.88;0.30;;;11.30;99.90;;;;;;5088906;28;20057;-79
2022/08/06 03:10:19;;;;;;;0.00;0.00;;;11.30;99.90;;;;;;5089625;28;20053;-79
2022/08/06 03:12:47;;;;;;;0.00;0.00;;;11.30;99.90;;;;;;5089319;28;20045;-79
2022/08/06 03:15:13;;;;;;;0.00;0.00;;;11.30;99.90;;;;;;5089212;28;20508;-79
2022/08/06 03:17:40;;;;;;;0.00;0.00;;;11.20;99.90;;;;;;5088928;28;20044;-79
2022/08/06 03:20:08;;;;;;;0.00;0.00;;;11.20;99.90;;;;;;5089149;28;20052;-79
2022/08/06 03:22:36;;;;;;;0.35;0.35;;;11.20;99.90;;;;;;5072343;28;20601;-79
2022/08/06 03:25:04;;;;;;;0.73;0.30;;;11.10;99.90;;;;;;5072006;28;20117;-79
2022/08/06 03:27:31;;;;;;;0.00;0.00;;;11.20;99.90;;;;;;5089130;28;20045;-79
2022/08/06 03:29:58;;;;;;;0.00;0.00;;;11.10;99.90;;;;;;5088678;28;20119;-79
2022/08/06 03:32:24;;;;;;;0.00;0.00;;;11.20;99.90;;;;;;5089082;28;20053;-79
2022/08/06 03:34:52;;;;;;;0.00;0.00;;;11.10;99.90;;;;;;5071812;28;20041;-79
2022/08/06 03:37:19;;;;;;;0.00;0.00;;;11.20;99.90;;;;;;5089014;28;20041;-79
2022/08/06 03:39:46;;;;;;;0.00;0.00;;;11.20;99.90;;;;;;5072646;28;20052;-79
2022/08/06 03:42:12;;;;;;;0.00;0.00;;;11.20;99.90;;;;;;5072170;28;20099;-79
2022/08/06 03:44:38;;;;;;;0.00;0.00;;;11.10;99.90;;;;;;5088434;28;20048;-79
2022/08/06 03:47:06;;;;;;;0.00;0.00;;;11.20;99.90;;;;;;5071839;28;20064;-79
2022/08/06 03:49:59;;;;;;;0.20;0.20;;;11.20;99.90;;;;;;5071798;28;20049;-79
2022/08/06 03:52:28;;;;;;;0.00;0.00;;;11.20;99.90;;;;;;5071850;28;20438;-79
2022/08/06 03:54:57;;;;;;;0.00;0.00;;;11.10;99.90;;;;;;5071058;28;20064;-79
2022/08/06 03:57:26;;;;;;;0.00;0.00;;;11.10;99.90;;;;;;5088569;28;20091;-79
2022/08/06 04:00:00;;;;;;;0.00;0.00;;;11.10;99.90;;;;;;5055016;28;20037;-79
2022/08/06 04:02:35;;;;;;;0.00;0.00;;;11.00;99.90;;;;;;5088274;28;20049;-79
2022/08/06 04:05:02;;;;;;;0.00;0.00;;;11.00;99.90;;;;;;5071556;28;20389;-79
2022/08/06 04:07:29;;;;;;;0.00;0.00;;;11.00;99.90;;;;;;5070636;28;20059;-79
2022/08/06 04:09:55;;;;;;;0.00;0.00;;;11.00;99.90;;;;;;5088065;28;20040;-79
2022/08/06 04:12:22;;;;;;;0.00;0.00;;;11.10;99.90;;;;;;5087510;28;20503;-79
2022/08/06 04:14:49;;;;;;;0.00;0.00;;;11.00;99.90;;;;;;5070899;28;20095;-81
2022/08/06 04:17:16;;;;;;;0.00;0.00;;;11.00;99.90;;;;;;5088035;28;20037;-79
2022/08/06 04:19:42;;;;;;;0.00;0.00;;;11.00;99.90;;;;;;5071429;28;20131;-78
2022/08/06 04:22:08;;;;;;;0.00;0.00;;;11.00;99.90;;;;;;5087588;28;20397;-79
2022/08/06 04:24:34;;;;;;;0.00;0.00;;;10.90;99.90;;;;;;5087592;28;20055;-79
2022/08/06 04:27:03;;;;;;;0.00;0.00;;;10.90;99.90;;;;;;5087554;28;20045;-79
2022/08/06 04:29:30;;;;;;;0.00;0.00;;;10.90;99.90;;;;;;5087568;28;20040;-79
2022/08/06 04:31:58;;;;;;;0.00;0.00;;;10.90;99.90;;;;;;5070638;28;20432;-79
2022/08/06 04:34:26;;;;;;;0.00;0.00;;;10.90;99.90;;;;;;5087266;28;20084;-79
2022/08/06 04:36:53;;;;;;;0.00;0.00;;;10.80;99.90;;;;;;5070713;28;20079;-79
2022/08/06 04:39:20;;;;;;;0.00;0.00;;;10.80;99.90;;;;;;5087370;28;20389;-79
2022/08/06 04:41:46;;;;;;;0.00;0.00;;;10.80;99.90;;;;;;5037683;28;20131;-78
2022/08/06 04:44:13;;;;;;;0.00;0.00;;;10.90;99.90;;;;;;5087429;28;20377;-79
2022/08/06 04:46:39;;;;;;;0.00;0.00;;;10.90;99.90;;;;;;5070496;28;20064;-79
2022/08/06 04:49:04;;;;;;;0.00;0.00;;;10.90;99.90;;;;;;5070096;28;20372;-79
2022/08/06 04:51:30;;;;;;;0.00;0.00;;;10.90;99.90;;;;;;5070472;28;20068;-79
2022/08/06 04:53:56;;;;;;;0.10;0.10;;;10.90;99.90;;;;;;5086745;28;20127;-79
2022/08/06 04:56:22;;;;;;;0.00;0.00;;;11.00;99.90;;;;;;5087039;28;20059;-79
2022/08/06 04:58:48;;;;;;;0.10;0.00;;;11.00;99.90;;;;;;5070028;28;20040;-79
2022/08/06 05:01:14;;;;;;;0.00;0.00;;;11.00;99.90;;;;;;5086675;28;20489;-79
2022/08/06 05:03:39;;;;;;;0.00;0.00;;;11.10;99.90;;;;;;5086928;28;20040;-79
2022/08/06 05:06:42;;;;;;;0.63;0.10;;;11.10;99.90;;;;;;5086933;28;20087;-79
2022/08/06 05:09:11;;;;;;;0.00;0.00;;;11.20;99.90;;;;;;5070231;28;20048;-79
2022/08/06 05:11:46;;;;;;;0.15;0.15;;;11.20;99.90;;;;;;5069900;28;20056;-79
2022/08/06 05:14:24;;;;;;;0.10;0.00;;;11.20;99.90;;;;;;5053234;28;20072;-79
2022/08/06 05:16:51;;;;;;;0.00;0.00;;;11.30;99.90;;;;;;5070148;28;20048;-79
2022/08/06 05:19:32;;;;;;;0.00;0.00;;;11.40;99.90;;;;;;5087234;28;20084;-79
2022/08/06 05:22:00;;;;;;;0.43;0.32;;;11.40;99.90;;;;;;5087125;28;20045;-78
2022/08/06 05:24:27;;;;;;;0.00;0.00;;;11.40;99.90;;;;;;5087497;28;20053;-79
2022/08/06 05:26:54;;;;;;;0.00;0.00;;;11.50;99.90;;;;;;5087363;28;20053;-79
2022/08/06 05:29:21;;;;;;;0.08;0.08;;;11.50;99.90;;;;;;5069826;28;20151;-79
2022/08/06 05:31:47;;;;;;;0.38;0.38;;;11.50;99.90;;;;;;5069769;28;20164;-79
2022/08/06 05:34:13;;;;;;;0.00;0.00;;;11.50;99.90;;;;;;5069357;28;20528;-79
2022/08/06 05:36:39;;;;;;;0.00;0.00;;;11.50;99.90;;;;;;5086837;28;20045;-79
2022/08/06 05:39:06;;;;;;;0.00;0.00;;;11.60;99.90;;;;;;5086585;28;20089;-79
2022/08/06 05:41:34;;;;;;;0.00;0.00;;;11.60;99.90;;;;;;5087002;28;20049;-80
2022/08/06 05:44:01;;;;;;;0.00;0.00;;;11.70;99.90;;;;;;5086213;28;20057;-79
2022/08/06 05:46:40;;;;;;;0.00;0.00;;;11.70;99.90;;;;;;5086101;28;20409;-80
2022/08/06 05:49:22;;;;;;;0.00;0.00;;;11.70;99.90;;;;;;5086131;28;20490;-80
2022/08/06 05:52:15;;;;;;;0.00;0.00;;;11.80;99.90;;;;;;5086288;28;20044;-80
2022/08/06 05:54:55;;;;;;;1.55;0.40;;;11.80;99.90;;;;;;5086064;28;20053;-79
2022/08/06 05:57:47;;;;;;;0.00;0.00;;;11.90;99.90;;;;;;5086711;28;20431;-80
2022/08/06 06:00:18;;;;;;;0.70;0.00;;;12.00;99.90;;;;;;5086475;28;20097;-79
2022/08/06 06:02:47;;;;;;;0.20;0.20;;;12.00;99.90;;;;;;5070069;28;20053;-79
2022/08/06 06:05:13;;;;;;;0.00;0.00;;;12.10;99.90;;;;;;5086368;28;20499;-79
2022/08/06 06:07:39;;;;;;;0.00;0.00;;;12.20;99.90;;;;;;5085750;28;20065;-77
2022/08/06 06:10:07;;;;;;;0.00;0.00;;;12.30;99.90;;;;;;5086155;28;20063;-78
2022/08/06 06:12:35;;;;;;;0.00;0.00;;;12.50;99.90;;;;;;5072972;28;20045;-79
2022/08/06 06:15:05;;;;;;;0.10;0.10;;;12.50;99.90;;;;;;5073160;28;20052;-78
2022/08/06 06:18:05;;;;;;;0.00;0.00;;;12.70;99.90;;;;;;5039684;28;20049;-78
2022/08/06 06:20:47;;;;;;;0.00;0.00;;;12.90;99.90;;;;;;5089557;28;20060;-77
2022/08/06 06:23:27;;;;;;;0.00;0.00;;;13.10;99.90;;;;;;5072904;28;20052;-77
2022/08/06 06:26:11;;;;;;;0.00;0.00;;;13.20;99.90;;;;;;5090108;28;20040;-77
2022/08/06 06:29:09;;;;;;;0.03;0.03;;;13.40;99.90;;;;;;5090054;28;20057;-78
2022/08/06 06:32:01;;;;;;;0.00;0.00;;;13.50;99.90;;;;;;5073078;28;20118;-79
2022/08/06 06:34:50;;;;;;;0.00;0.00;;;13.70;99.90;;;;;;5089653;28;20484;-79
2022/08/06 06:37:30;;;;;;;0.10;0.10;;;13.90;99.90;;;;;;5090205;28;20473;-79
2022/08/06 06:40:30;;;;;;;0.00;0.00;;;14.00;99.90;;;;;;5089732;28;20059;-79
2022/08/06 06:42:58;;;;;;;0.00;0.00;;;14.20;99.90;;;;;;5072690;28;20041;-79
2022/08/06 06:45:33;;;;;;;0.00;0.00;;;14.40;99.90;;;;;;5072914;28;20049;-79
2022/08/06 06:48:09;;;;;;;0.00;0.00;;;14.40;99.90;;;;;;5089504;28;20049;-79
2022/08/06 06:50:41;;;;;;;0.00;0.00;;;14.40;99.90;;;;;;5090468;28;20143;-79
2022/08/06 06:53:10;;;;;;;0.00;0.00;;;14.50;99.90;;;;;;5090133;28;20095;-80
2022/08/06 06:55:43;;;;;;;0.00;0.00;;;14.60;99.90;;;;;;5089800;28;20044;-79
2022/08/06 06:58:33;;;;;;;0.70;0.00;;;14.70;99.90;;;;;;5089425;28;20040;-80
2022/08/06 07:00:59;;;;;;;0.00;0.00;;;14.90;99.90;;;;;;5055765;28;20049;-80
2022/08/06 07:03:28;;;;;;;0.00;0.00;;;15.40;99.90;;;;;;5089414;28;20051;-80
2022/08/06 07:05:57;;;;;;;0.00;0.00;;;15.80;99.90;;;;;;5072448;28;20055;-80
2022/08/06 07:08:25;;;;;;;0.00;0.00;;;16.10;99.90;;;;;;5088352;28;20053;-80
2022/08/06 07:10:52;;;;;;;0.00;0.00;;;16.40;99.90;;;;;;5072532;28;20049;-80
2022/08/06 07:13:20;;;;;;;0.00;0.00;;;16.60;99.90;;;;;;5055761;28;20408;-80
2022/08/06 07:15:48;;;;;;;0.00;0.00;;;16.50;99.90;;;;;;5055798;28;20043;-80
2022/08/06 07:18:15;;;;;;;0.00;0.00;;;16.50;99.90;;;;;;5073414;28;20056;-80
2022/08/06 07:20:43;;;;;;;0.00;0.00;;;16.50;99.90;;;;;;5089118;28;20106;-80
2022/08/06 07:23:10;;;;;;;0.00;0.00;;;16.50;99.90;;;;;;5088588;28;20040;-80
2022/08/06 07:25:45;;;;;;;0.00;0.00;;;16.70;99.90;;;;;;5072251;28;20067;-80
2022/08/06 07:28:12;;;;;;;0.00;0.00;;;17.00;99.90;;;;;;5089200;28;20049;-80
2022/08/06 07:30:40;;;;;;;0.00;0.00;;;17.30;99.90;;;;;;5071945;28;20048;-80
2022/08/06 07:33:08;;;;;;;0.00;0.00;;;17.40;99.90;;;;;;5071913;28;20057;-80
2022/08/06 07:35:34;;;;;;;0.00;0.00;;;17.30;99.90;;;;;;5072005;28;20068;-80
2022/08/06 07:38:02;;;;;;;0.00;0.00;;;17.50;99.90;;;;;;5071953;28;20053;-80
2022/08/06 07:41:00;;;;;;;0.00;0.00;;;17.50;99.90;;;;;;5071855;28;20055;-80
2022/08/06 07:43:40;;;;;;;0.00;0.00;;;17.60;99.90;;;;;;5071129;28;20154;-80
2022/08/06 07:46:07;;;;;;;0.00;0.00;;;17.50;99.90;;;;;;5071994;28;20063;-80
2022/08/06 07:48:46;;;;;;;0.00;0.00;;;17.60;99.90;;;;;;5071657;28;20059;-80
2022/08/06 07:51:13;;;;;;;0.00;0.00;;;17.60;99.90;;;;;;5089149;28;20102;-80
2022/08/06 07:53:41;;;;;;;0.00;0.00;;;17.70;99.90;;;;;;5088626;28;20136;-81
2022/08/06 07:56:08;;;;;;;0.00;0.00;;;17.80;99.90;;;;;;5071306;28;20071;-81
2022/08/06 07:58:36;;;;;;;0.00;0.00;;;17.90;99.90;;;;;;5070862;28;20389;-81
2022/08/06 08:01:02;;;;;;;0.00;0.00;;;18.00;99.90;;;;;;5087711;28;20152;-81
2022/08/06 08:06:18;;;;;;;0.00;0.00;;;18.10;99.90;;;;;;5088209;28;20111;-81
2022/08/06 08:08:45;;;;;;;0.00;0.00;;;18.10;99.90;;;;;;5070774;28;20130;-81
2022/08/06 08:11:14;;;;;;;0.00;0.00;;;18.10;99.90;;;;;;5087950;28;20045;-82
2022/08/06 08:13:40;;;;;;;0.17;0.17;;;18.20;99.90;;;;;;5070919;28;20111;-82
2022/08/06 08:16:08;;;;;;;0.00;0.00;;;18.30;99.90;;;;;;5071125;28;20112;-81
2022/08/06 08:18:34;;;;;;;0.00;0.00;;;18.20;99.90;;;;;;5088050;28;20052;-81
2022/08/06 08:21:01;;;;;;;0.00;0.00;;;18.30;99.90;;;;;;5087857;28;20569;-81
2022/08/06 08:23:30;;;;;;;0.00;0.00;;;18.30;99.90;;;;;;5087516;28;20488;-81
2022/08/06 08:26:01;;;;;;;0.00;0.00;;;18.40;99.90;;;;;;5087806;28;20484;-81
2022/08/06 08:28:27;;;;;;;0.00;0.00;;;18.40;99.90;;;;;;5088062;28;20049;-81
2022/08/06 08:30:53;;;;;;;0.00;0.00;;;18.30;99.90;;;;;;5070943;28;20373;-81
2022/08/06 08:33:19;;;;;;;0.00;0.00;;;18.10;99.90;;;;;;5070172;28;20055;-81
2022/08/06 08:35:49;;;;;;;0.00;0.00;;;18.10;99.90;;;;;;5071117;28;20052;-81
2022/08/06 08:38:14;;;;;;;0.00;0.00;;;18.20;99.90;;;;;;5070623;28;20044;-81
2022/08/06 08:40:42;;;;;;;0.00;0.00;;;18.40;99.90;;;;;;5087060;28;20551;-81
2022/08/06 08:43:11;;;;;;;0.00;0.00;;;18.60;99.90;;;;;;5070615;28;20068;-81
2022/08/06 08:45:38;;;;;;;0.00;0.00;;;18.80;99.90;;;;;;5087433;28;20045;-81
2022/08/06 08:48:04;;;;;;;0.05;0.05;;;19.00;99.90;;;;;;5070569;28;20049;-81
2022/08/06 08:50:31;;;;;;;0.00;0.00;;;19.10;99.90;;;;;;5086782;28;20499;-81
2022/08/06 08:53:28;;;;;;;0.00;0.00;;;19.10;99.90;;;;;;5087204;28;20095;-81
2022/08/06 08:55:54;;;;;;;0.00;0.00;;;19.00;99.90;;;;;;5019704;28;20072;-81
2022/08/06 08:58:22;;;;;;;0.00;0.00;;;19.00;99.90;;;;;;5019753;28;20057;-80
2022/08/06 09:00:48;;;;;;;0.00;0.00;;;19.00;99.90;;;;;;5036045;28;20064;-81
2022/08/06 09:03:15;;;;;;;0.00;0.00;;;19.10;99.90;;;;;;5035855;28;20057;-81
2022/08/06 09:05:41;;;;;;;0.00;0.00;;;19.30;99.90;;;;;;5035903;28;20497;-81
2022/08/06 09:08:10;;;;;;;0.00;0.00;;;19.30;99.90;;;;;;5018971;28;20053;-81
2022/08/06 09:10:36;;;;;;;0.00;0.00;;;19.50;99.90;;;;;;5019190;28;20052;-81
2022/08/06 09:13:02;;;;;;;0.00;0.00;;;19.60;99.90;;;;;;5034390;28;20485;-81
2022/08/06 09:15:28;;;;;;;0.00;0.00;;;19.70;99.90;;;;;;5035730;28;20064;-81
2022/08/06 09:17:54;;;;;;;0.00;0.00;;;19.80;99.30;;;;;;5019551;28;20049;-81
2022/08/06 09:20:20;;;;;;;0.00;0.00;;;20.00;99.90;;;;;;5019048;28;20079;-81
2022/08/06 09:22:50;;;;;;;0.00;0.00;;;20.20;99.90;;;;;;5036817;28;20103;-81
2022/08/06 09:25:44;;;;;;;0.00;0.00;;;20.30;99.50;;;;;;5036763;28;20182;-81
2022/08/06 09:28:11;;;;;;;0.00;0.00;;;20.30;98.60;;;;;;5035958;28;20135;-81
2022/08/06 09:30:38;;;;;;;0.00;0.00;;;20.10;95.50;;;;;;5019067;28;20107;-81
2022/08/06 09:33:12;;;;;;;0.00;0.00;;;19.90;97.00;;;;;;5028672;28;20064;-81
2022/08/06 09:35:38;;;;;;;0.00;0.00;;;19.80;97.70;;;;;;5070328;28;20547;-81
2022/08/06 09:38:10;;;;;;;0.00;0.00;;;19.60;98.70;;;;;;5069919;28;20053;-81
2022/08/06 09:40:36;;;;;;;0.00;0.00;;;19.50;98.80;;;;;;5069849;28;20053;-81
2022/08/06 09:43:02;;;;;;;0.00;0.00;;;19.40;98.40;;;;;;5070013;28;20389;-81
2022/08/06 09:45:28;;;;;;;0.00;0.00;;;19.50;98.80;;;;;;5070339;28;20523;-81
2022/08/06 09:48:05;;;;;;;0.00;0.00;;;19.60;98.80;;;;;;5069547;28;20114;-81
2022/08/06 09:50:38;;;;;;;0.00;0.00;;;19.70;97.60;;;;;;5086724;28;20041;-83
2022/08/06 09:53:04;;;;;;;0.00;0.00;;;19.90;97.60;;;;;;5069926;28;20143;-81
2022/08/06 09:55:31;;;;;;;0.00;0.00;;;20.10;96.30;;;;;;5086596;28;20144;-81
2022/08/06 09:57:57;;;;;;;0.00;0.00;;;20.20;96.10;;;;;;5086277;28;20056;-81
2022/08/06 10:00:28;;;;;;;0.05;0.00;;;20.50;96.80;;;;;;5069468;28;20053;-81
2022/08/06 10:02:59;;;;;;;0.20;0.20;;;20.70;95.10;;;;;;5086933;28;20217;-81
2022/08/06 10:05:25;;;;;;;0.00;0.00;;;20.90;96.70;;;;;;5086880;28;20475;-81
2022/08/06 10:08:17;;;;;;;0.20;0.20;;;21.10;96.50;;;;;;5069785;28;20060;-81
2022/08/06 10:10:49;;;;;;;0.00;0.00;;;21.30;95.70;;;;;;5037155;28;20037;-81
2022/08/06 10:13:16;;;;;;;0.00;0.00;;;21.50;95.80;;;;;;5086677;28;20045;-81
2022/08/06 10:15:48;;;;;;;0.00;0.00;;;21.70;95.00;;;;;;5070402;28;20489;-81
2022/08/06 10:18:29;;;;;;;0.00;0.00;;;21.70;92.60;;;;;;5087034;28;20105;-82
2022/08/06 10:21:10;;;;;;;0.00;0.00;;;21.80;93.00;;;;;;5070068;28;20053;-81
2022/08/06 10:23:39;;;;;;;2.05;0.40;;;22.00;93.10;;;;;;5070017;28;20053;-81
2022/08/06 10:26:10;;;;;;;0.00;0.00;;;22.10;90.70;;;;;;5086369;28;20049;-81
2022/08/06 10:28:38;;;;;;;0.00;0.00;;;22.30;91.90;;;;;;5086303;28;20045;-82
2022/08/06 10:31:06;;;;;;;0.00;0.00;;;22.60;91.50;;;;;;5069373;28;20052;-82
2022/08/06 10:33:39;;;;;;;0.00;0.00;;;22.70;90.10;;;;;;5069850;28;20052;-82
2022/08/06 10:36:11;;;;;;;0.28;0.00;;;22.50;91.10;;;;;;5086764;28;20041;-82
2022/08/06 10:38:40;;;;;;;0.00;0.00;;;22.50;91.20;;;;;;5086602;28;20033;-82
2022/08/06 10:41:08;;;;;;;0.00;0.00;;;22.10;90.60;;;;;;5069016;28;20060;-82
2022/08/06 10:43:37;;;;;;;0.00;0.00;;;21.80;90.10;;;;;;5067416;28;20048;-81
2022/08/06 10:46:08;;;;;;;0.00;0.00;;;21.40;90.10;;;;;;5068900;28;20056;-81
2022/08/06 10:48:39;;;;;;;0.00;0.00;;;21.10;90.40;;;;;;5052844;28;20048;-81
2022/08/06 10:51:07;;;;;;;0.10;0.10;;;21.00;90.80;;;;;;5086236;28;20463;-81
2022/08/06 10:53:35;;;;;;;0.00;0.00;;;21.30;91.40;;;;;;5068918;28;20103;-82
2022/08/06 10:56:03;;;;;;;0.00;0.00;;;21.50;92.70;;;;;;5085914;28;20539;-81
2022/08/06 10:58:30;;;;;;;0.00;0.00;;;21.60;91.80;;;;;;5090185;28;20088;-81
2022/08/06 11:00:59;;;;;;;0.00;0.00;;;21.40;91.60;;;;;;5073124;28;20110;-81
2022/08/06 11:03:44;;;;;;;0.00;0.00;;;21.20;90.90;;;;;;5089728;28;20123;-82
2022/08/06 11:06:26;;;;;;;0.00;0.00;;;21.30;92.10;;;;;;5073009;28;20547;-82
2022/08/06 11:09:27;;;;;;;0.00;0.00;;;21.60;91.40;;;;;;5089175;28;20057;-81
2022/08/06 11:12:13;;;;;;;0.00;0.00;;;22.20;89.00;;;;;;5038317;28;20051;-81
2022/08/06 11:14:39;;;;;;;0.00;0.00;;;22.70;84.90;;;;;;5021623;28;20060;-81
2022/08/06 11:17:06;;;;;;;0.00;0.00;;;23.10;84.50;;;;;;5022039;28;20412;-81
2022/08/06 11:19:47;;;;;;;0.10;0.00;;;23.50;83.30;;;;;;5038126;28;20143;-81
2022/08/06 11:22:38;;;;;;;0.00;0.00;;;23.80;84.80;;;;;;5038085;28;20049;-82
2022/08/06 11:25:08;;;;;;;0.00;0.00;;;23.80;83.70;;;;;;5020708;28;20061;-81
2022/08/06 11:27:50;;;;;;;0.00;0.00;;;23.50;81.50;;;;;;5038088;28;20060;-82
2022/08/06 11:30:16;;;;;;;0.00;0.00;;;22.80;80.90;;;;;;5021557;28;20163;-81
2022/08/06 11:32:50;;;;;;;0.00;0.00;;;22.50;80.10;;;;;;5037856;28;20110;-82
2022/08/06 11:35:34;;;;;;;0.05;0.00;;;22.10;80.40;;;;;;5037371;28;20132;-81
2022/08/06 11:38:06;;;;;;;0.00;0.00;;;21.90;81.70;;;;;;5037449;28;20469;-81
2022/08/06 11:40:57;;;;;;;0.00;0.00;;;21.70;83.30;;;;;;5021093;28;20053;-81
2022/08/06 11:43:53;;;;;;;0.00;0.00;;;21.90;85.30;;;;;;5021215;28;20094;-81
2022/08/06 11:46:26;;;;;;;0.00;0.00;;;22.00;84.50;;;;;;5032585;28;20119;-81
2022/08/06 11:49:15;;;;;;;0.00;0.00;;;21.70;82.90;;;;;;5071875;28;20049;-81
2022/08/06 11:51:58;;;;;;;0.00;0.00;;;21.40;85.20;;;;;;5021084;28;20099;-81
2022/08/06 11:54:26;;;;;;;0.00;0.00;;;21.10;87.50;;;;;;5037338;28;20053;-81
2022/08/06 11:57:01;;;;;;;0.10;0.05;;;20.80;85.10;;;;;;5020342;28;20057;-81
2022/08/06 11:59:27;;;;;;;0.00;0.00;;;20.70;88.00;;;;;;5020401;28;20513;-81
2022/08/06 12:01:53;;;;;;;0.00;0.00;;;20.50;87.40;;;;;;5020742;28;20136;-81
2022/08/06 12:04:37;;;;;;;0.00;0.00;;;20.40;88.10;;;;;;5036267;28;20626;-81
2022/08/06 12:07:21;;;;;;;0.00;0.00;;;20.30;88.60;;;;;;5019775;28;20143;-81
2022/08/06 12:10:00;;;;;;;;;;;20.30;89.90;;;;;;5020532;28;20148;-81
2022/08/06 12:12:29;;;;;;;0.10;0.00;;;20.30;90.30;;;;;;5070478;28;19920;-80
2022/08/06 12:14:57;;;;;;;0.00;0.00;;;20.30;90.90;;;;;;5036820;28;20049;-81
2022/08/06 12:17:25;;;;;;;0.00;0.00;;;20.50;91.10;;;;;;5037463;28;20049;-81
2022/08/06 12:19:53;;;;;;;0.00;0.00;;;21.00;90.60;;;;;;5036838;28;20048;-80
2022/08/06 12:22:20;;;;;;;0.00;0.00;;;21.70;92.60;;;;;;5019981;28;20105;-81
2022/08/06 12:24:50;;;;;;;0.60;0.10;;;22.40;92.10;;;;;;5020076;28;20052;-81
2022/08/06 12:27:16;;;;;;;0.00;0.00;;;22.70;88.70;;;;;;5037016;28;20128;-81
2022/08/06 12:29:43;;;;;;;0.00;0.00;;;22.80;88.80;;;;;;5036066;28;20512;-81
2022/08/06 12:32:23;;;;;;;0.00;0.00;;;22.60;84.50;;;;;;5087893;28;20366;-81
2022/08/06 12:34:50;;;;;;;0.00;0.00;;;22.50;87.70;;;;;;5070375;28;20041;-81
2022/08/06 12:37:17;;;;;;;0.00;0.00;;;22.50;89.40;;;;;;5070597;28;20048;-81
2022/08/06 12:42:28;;;;;;;0.00;0.00;;;22.60;86.40;;;;;;5087474;28;20041;-81
2022/08/06 12:44:54;;;;;;;0.25;0.15;;;22.60;87.60;;;;;;5087682;28;20126;-81
2022/08/06 12:47:21;;;;;;;0.00;0.00;;;22.60;86.20;;;;;;5087097;28;20140;-81
2022/08/06 12:49:47;;;;;;;0.00;0.00;;;22.80;88.30;;;;;;5087321;28;20099;-81
2022/08/06 12:52:20;;;;;;;0.00;0.00;;;22.90;82.30;;;;;;5070238;28;20053;-81
2022/08/06 12:54:46;;;;;;;0.00;0.00;;;23.00;85.00;;;;;;5087289;28;20037;-81
2022/08/06 12:57:22;;;;;;;1.35;0.20;;;23.00;82.80;;;;;;5087286;28;20037;-81
2022/08/06 12:59:50;;;;;;;0.00;0.00;;;22.90;85.20;;;;;;5087554;28;20090;-81
2022/08/06 13:02:18;;;;;;;0.00;0.00;;;22.90;85.70;;;;;;5070312;28;20091;-81
2022/08/06 13:04:49;;;;;;;0.00;0.00;;;22.80;81.30;;;;;;5087058;28;20168;-81
2022/08/06 13:07:16;;;;;;;0.05;0.00;;;22.60;81.30;;;;;;5086811;28;20444;-82
2022/08/06 13:09:45;;;;;;;0.00;0.00;;;22.40;82.20;;;;;;5070385;28;20049;-81
2022/08/06 13:12:19;;;;;;;0.10;0.10;;;22.30;81.60;;;;;;5070146;28;20048;-81
2022/08/06 13:14:53;;;;;;;0.00;0.00;;;22.30;83.70;;;;;;5086813;28;20053;-81